Terminal Aerodrome Forecast
Issued by NWS

Home | Current Version | Previous Version | Text Only | Print | Product List | Glossary On
Versions: 1 2 3 4 5 6 7 8 9 10 11 12 13 14 15 16 17 18 19
000
FTUS43 KIND 072000 AAB
TAFBMG
TAF AMD
KBMG 072031Z 0721/0818 27010KT 4SM -RA BR SCT006 OVC025
      TEMPO 0721/0723 1 1/2SM RA BR BKN006 OVC025
     FM072300 34010KT 4SM BR OVC008
     FM080900 01007KT 3SM BR OVC005
     FM081400 08006KT P6SM OVC012=

USA.gov is the U.S. government's official web portal to all federal, state and local government web resources and services.